createdAt,value
2019-02-26T00:01:21.038Z,47.90
2019-02-26T00:03:53.131Z,41.47
2019-02-26T00:06:24.795Z,37.23
2019-02-26T00:08:54.147Z,45.47
2019-02-26T00:11:28.334Z,58.43
2019-02-26T00:13:57.305Z,47.00
2019-02-26T00:16:27.247Z,34.53
2019-02-26T00:19:00.643Z,38.53
2019-02-26T00:21:29.285Z,36.73
2019-02-26T00:23:58.574Z,38.83
2019-02-26T00:26:28.049Z,43.77
2019-02-26T00:28:59.626Z,46.70
2019-02-26T00:31:28.737Z,33.20
2019-02-26T00:33:59.083Z,38.87
2019-02-26T00:36:29.737Z,39.17
2019-02-26T00:39:00.615Z,36.40
2019-02-26T00:41:31.892Z,43.17
2019-02-26T00:44:06.423Z,40.50
2019-02-26T00:46:36.991Z,38.83
2019-02-26T00:49:07.645Z,37.23
2019-02-26T00:51:39.098Z,36.77
2019-02-26T00:54:08.969Z,44.33
2019-02-26T00:56:38.729Z,39.73
2019-02-26T00:59:09.209Z,35.53
2019-02-26T01:01:38.375Z,40.63
2019-02-26T01:04:07.551Z,41.20
2019-02-26T01:06:36.795Z,37.53
2019-02-26T01:09:11.238Z,41.40
2019-02-26T01:11:42.821Z,42.37
2019-02-26T01:14:13.514Z,33.90
2019-02-26T01:16:43.778Z,38.17
2019-02-26T01:19:19.914Z,45.43
2019-02-26T01:21:50.082Z,39.80
2019-02-26T01:24:19.259Z,35.30
2019-02-26T01:26:48.425Z,41.53
2019-02-26T01:29:20.661Z,41.83
2019-02-26T01:31:49.027Z,36.83
2019-02-26T01:34:20.328Z,38.40
2019-02-26T01:36:53.030Z,36.77
2019-02-26T01:39:23.375Z,45.37
2019-02-26T01:41:53.986Z,35.70
2019-02-26T01:44:28.087Z,40.57
2019-02-26T01:46:55.651Z,37.07
2019-02-26T01:49:28.577Z,38.83
2019-02-26T01:51:57.827Z,38.17
2019-02-26T01:54:28.287Z,43.50
2019-02-26T01:56:58.195Z,39.43
2019-02-26T01:59:27.584Z,40.40
2019-02-26T02:01:56.772Z,38.93
2019-02-26T02:04:29.558Z,41.33
2019-02-26T02:06:59.578Z,39.53
2019-02-26T02:09:29.760Z,36.33
2019-02-26T02:12:00.008Z,37.80
2019-02-26T02:14:33.794Z,38.10
2019-02-26T02:17:03.624Z,37.60
2019-02-26T02:19:41.072Z,41.70
2019-02-26T02:22:12.069Z,39.40
2019-02-26T02:24:43.470Z,39.30
2019-02-26T02:27:19.503Z,38.37
2019-02-26T02:29:48.834Z,39.47
2019-02-26T02:32:17.785Z,41.80
2019-02-26T02:34:47.393Z,42.37
2019-02-26T02:37:18.572Z,34.90
2019-02-26T02:39:48.183Z,39.27
2019-02-26T02:42:19.115Z,46.57
2019-02-26T02:44:49.425Z,50.33
2019-02-26T02:47:19.492Z,38.20
2019-02-26T02:49:48.728Z,39.20
2019-02-26T02:52:21.012Z,38.83
2019-02-26T02:54:51.868Z,32.17
2019-02-26T02:57:21.793Z,37.53
2019-02-26T02:59:54.334Z,34.93
2019-02-26T03:02:23.962Z,36.27
2019-02-26T03:04:53.119Z,36.17
2019-02-26T03:07:23.716Z,34.57
2019-02-26T03:09:53.424Z,36.87
2019-02-26T03:12:22.568Z,33.60
2019-02-26T03:14:51.738Z,41.07
2019-02-26T03:17:20.974Z,36.43
2019-02-26T03:19:50.141Z,40.77
2019-02-26T03:22:21.546Z,33.57
2019-02-26T03:24:53.793Z,37.03
2019-02-26T03:27:22.320Z,38.87
2019-02-26T03:29:52.520Z,37.87
2019-02-26T03:32:23.029Z,37.90
2019-02-26T03:34:52.361Z,36.77
2019-02-26T03:37:23.287Z,36.60
2019-02-26T03:39:54.735Z,32.80
2019-02-26T03:42:23.767Z,35.17
2019-02-26T03:44:59.624Z,34.50
2019-02-26T03:47:28.840Z,40.23
2019-02-26T03:49:58.067Z,35.40
2019-02-26T03:52:29.021Z,35.37
2019-02-26T03:54:59.718Z,37.03
2019-02-26T03:57:28.937Z,33.77
2019-02-26T03:59:59.523Z,39.17
2019-02-26T04:02:33.283Z,36.93
2019-02-26T04:05:03.683Z,37.00
2019-02-26T04:07:35.996Z,35.00
2019-02-26T04:10:04.523Z,32.77
2019-02-26T04:12:39.249Z,39.17
2019-02-26T04:15:06.264Z,44.70
2019-02-26T04:17:36.927Z,49.47
2019-02-26T04:20:08.527Z,35.17
2019-02-26T04:22:40.198Z,37.27
2019-02-26T04:25:33.354Z,38.07
2019-02-26T04:28:33.506Z,39.67
2019-02-26T04:31:41.494Z,40.53
2019-02-26T04:34:24.225Z,35.43
2019-02-26T04:37:41.030Z,38.33
2019-02-26T04:40:21.969Z,36.63
2019-02-26T04:43:38.749Z,36.23
2019-02-26T04:47:00.184Z,41.77
2019-02-26T04:49:33.006Z,46.17
2019-02-26T04:52:03.058Z,37.70
2019-02-26T04:54:36.923Z,37.33
2019-02-26T04:57:06.608Z,42.03
2019-02-26T04:59:38.010Z,34.63
2019-02-26T05:02:06.798Z,39.57
2019-02-26T05:04:37.526Z,38.57
2019-02-26T05:07:10.328Z,36.17
2019-02-26T05:09:39.393Z,39.70
2019-02-26T05:12:08.556Z,38.10
2019-02-26T05:14:38.080Z,42.77
2019-02-26T05:17:07.608Z,39.70
2019-02-26T05:19:39.265Z,32.37
2019-02-26T05:22:07.646Z,40.00
2019-02-26T05:24:38.554Z,45.33
2019-02-26T05:27:19.807Z,45.63
2019-02-26T05:29:52.582Z,47.53
2019-02-26T05:32:24.085Z,46.17
2019-02-26T05:34:52.616Z,40.27
2019-02-26T05:37:22.146Z,36.40
2019-02-26T05:39:54.081Z,44.83
2019-02-26T05:42:22.906Z,43.37
2019-02-26T05:44:54.530Z,37.20
2019-02-26T05:47:26.547Z,40.03
2019-02-26T05:49:55.088Z,41.53
2019-02-26T05:52:27.267Z,45.40
2019-02-26T05:54:55.869Z,46.57
2019-02-26T05:57:32.365Z,45.13
2019-02-26T05:59:57.891Z,42.47
2019-02-26T06:02:27.399Z,40.00
2019-02-26T06:04:56.948Z,44.17
2019-02-26T06:07:29.745Z,46.00
2019-02-26T06:09:59.097Z,39.17
2019-02-26T06:12:32.402Z,58.70
2019-02-26T06:15:04.202Z,48.03
2019-02-26T06:17:31.023Z,53.23
2019-02-26T06:20:10.996Z,51.47
2019-02-26T06:22:42.342Z,43.83
2019-02-26T06:25:18.450Z,46.33
2019-02-26T06:27:42.602Z,49.67
2019-02-26T06:30:12.818Z,48.17
2019-02-26T06:32:44.554Z,45.57
2019-02-26T06:35:16.498Z,54.70
2019-02-26T06:37:46.605Z,62.50
2019-02-26T06:40:15.800Z,54.47
2019-02-26T06:42:45.351Z,49.80
2019-02-26T06:45:16.422Z,49.17
2019-02-26T06:47:47.925Z,49.50
2019-02-26T06:50:18.716Z,50.67
2019-02-26T06:52:49.970Z,47.30
2019-02-26T06:55:18.861Z,53.37
2019-02-26T06:57:50.900Z,53.13
2019-02-26T07:00:21.798Z,43.60
2019-02-26T07:02:50.087Z,52.07
2019-02-26T07:05:23.770Z,52.77
2019-02-26T07:07:54.203Z,47.73
2019-02-26T07:10:26.138Z,55.23
2019-02-26T07:12:54.614Z,56.30
2019-02-26T07:15:23.800Z,49.93
2019-02-26T07:18:02.248Z,60.17
2019-02-26T07:20:34.058Z,53.07
2019-02-26T07:22:58.927Z,58.53
2019-02-26T07:25:28.147Z,60.53
2019-02-26T07:28:01.080Z,60.40
2019-02-26T07:30:30.601Z,63.97
2019-02-26T07:33:00.419Z,67.87
2019-02-26T07:35:30.655Z,63.53
2019-02-26T07:38:01.718Z,61.33
2019-02-26T07:40:33.075Z,81.10
2019-02-26T07:43:06.956Z,66.60
2019-02-26T07:45:34.339Z,75.17
2019-02-26T07:48:03.533Z,91.83
2019-02-26T07:50:38.281Z,92.33
2019-02-26T07:53:07.311Z,94.07
2019-02-26T07:55:38.337Z,93.50
2019-02-26T07:58:09.154Z,97.97
2019-02-26T08:00:40.352Z,110.40
2019-02-26T08:03:13.046Z,104.63
2019-02-26T08:05:42.375Z,91.43
2019-02-26T08:08:13.819Z,98.10
2019-02-26T08:10:45.368Z,103.77
2019-02-26T08:13:13.935Z,109.27
2019-02-26T08:15:43.209Z,84.33
2019-02-26T08:18:12.885Z,91.50
2019-02-26T08:20:42.413Z,81.80
2019-02-26T08:23:14.786Z,90.00
2019-02-26T08:25:44.637Z,85.13
2019-02-26T08:28:15.454Z,99.47
2019-02-26T08:30:49.809Z,78.83
2019-02-26T08:33:20.154Z,101.43
2019-02-26T08:35:49.339Z,91.90
2019-02-26T08:38:18.895Z,91.27
2019-02-26T08:40:48.406Z,86.13
2019-02-26T08:43:17.724Z,90.73
2019-02-26T08:45:46.972Z,79.10
2019-02-26T08:48:17.261Z,83.63
2019-02-26T08:50:49.444Z,78.27
2019-02-26T08:53:19.741Z,84.10
2019-02-26T08:55:51.571Z,56.70
2019-02-26T08:58:23.473Z,60.23
2019-02-26T09:00:52.574Z,87.77
2019-02-26T09:03:22.249Z,64.73
2019-02-26T09:05:53.467Z,58.73
2019-02-26T09:08:24.865Z,64.67
2019-02-26T09:10:54.475Z,63.37
2019-02-26T09:13:25.428Z,53.60
2019-02-26T09:15:55.594Z,49.67
2019-02-26T09:18:28.102Z,45.40
2019-02-26T09:20:56.708Z,54.80
2019-02-26T09:23:28.803Z,50.63
2019-02-26T09:26:00.368Z,52.50
2019-02-26T09:28:32.002Z,46.17
2019-02-26T09:31:04.014Z,50.90
2019-02-26T09:33:33.017Z,48.23
2019-02-26T09:36:03.349Z,44.87
2019-02-26T09:38:32.734Z,35.97
2019-02-26T09:41:02.001Z,58.47
2019-02-26T09:43:31.257Z,45.67
2019-02-26T09:46:00.544Z,36.77
2019-02-26T09:48:29.808Z,30.33
2019-02-26T09:50:59.902Z,31.00
2019-02-26T09:53:29.090Z,35.47
2019-02-26T09:55:58.351Z,39.57
2019-02-26T09:58:28.211Z,34.47
2019-02-26T10:00:57.814Z,31.50
2019-02-26T10:03:29.561Z,28.87
2019-02-26T10:05:58.342Z,41.53
2019-02-26T10:08:29.929Z,37.40
2019-02-26T10:11:00.207Z,41.47
2019-02-26T10:13:29.803Z,43.17
2019-02-26T10:16:01.290Z,35.40
2019-02-26T10:18:32.835Z,45.87
2019-02-26T10:21:01.557Z,44.33
2019-02-26T10:23:32.977Z,43.57
2019-02-26T10:26:03.486Z,34.92
2019-02-26T10:28:39.383Z,21.12
2019-02-26T10:31:09.544Z,27.87
2019-02-26T10:33:40.203Z,19.15
2019-02-26T10:36:11.045Z,15.50
2019-02-26T10:38:39.711Z,19.50
2019-02-26T10:41:08.947Z,14.85
2019-02-26T10:43:40.082Z,18.77
2019-02-26T10:46:09.673Z,14.90
2019-02-26T10:48:41.053Z,14.53
2019-02-26T10:51:09.844Z,19.27
2019-02-26T10:53:39.149Z,20.60
2019-02-26T10:56:08.683Z,20.15
2019-02-26T10:58:37.935Z,20.30
2019-02-26T11:01:07.747Z,12.43
2019-02-26T11:03:41.664Z,14.20
2019-02-26T11:06:16.776Z,24.50
2019-02-26T11:08:44.633Z,17.67
2019-02-26T11:11:16.020Z,14.80
2019-02-26T11:13:48.211Z,10.60
2019-02-26T11:16:21.874Z,13.10
2019-02-26T11:18:47.644Z,13.50
2019-02-26T11:21:17.460Z,15.83
2019-02-26T11:23:46.639Z,24.90
2019-02-26T11:26:18.108Z,17.77
2019-02-26T11:28:47.939Z,18.17
2019-02-26T11:31:20.433Z,12.33
2019-02-26T11:33:56.397Z,12.78
2019-02-26T11:36:25.022Z,11.97
2019-02-26T11:38:56.216Z,19.45
2019-02-26T11:41:26.462Z,13.00
2019-02-26T11:43:56.491Z,16.87
2019-02-26T11:46:29.743Z,19.25
2019-02-26T11:48:59.000Z,13.95
2019-02-26T11:51:37.130Z,12.85
2019-02-26T11:54:04.644Z,10.65
2019-02-26T11:56:32.542Z,14.13
2019-02-26T11:59:01.807Z,14.35
2019-02-26T12:01:32.128Z,14.35
2019-02-26T12:04:04.206Z,9.83
2019-02-26T12:06:33.181Z,15.15
2019-02-26T12:09:03.477Z,11.93
2019-02-26T12:11:34.173Z,15.38
2019-02-26T12:14:03.436Z,7.72
2019-02-26T12:16:36.040Z,12.68
2019-02-26T12:19:06.038Z,9.93
2019-02-26T12:21:37.022Z,7.35
2019-02-26T12:24:08.893Z,11.43
2019-02-26T12:26:37.732Z,8.60
2019-02-26T12:29:07.285Z,10.78
2019-02-26T12:31:38.974Z,15.43
2019-02-26T12:34:09.134Z,7.53
2019-02-26T12:36:40.753Z,21.30
2019-02-26T12:39:10.580Z,8.03
2019-02-26T12:41:41.851Z,14.33
2019-02-26T12:44:13.523Z,6.40
2019-02-26T12:46:44.873Z,12.40
2019-02-26T12:49:15.809Z,16.20
2019-02-26T12:51:45.224Z,12.70
2019-02-26T12:54:15.682Z,12.70
2019-02-26T12:56:49.027Z,10.70
2019-02-26T12:59:18.494Z,14.38
2019-02-26T13:01:49.290Z,6.53
2019-02-26T13:04:21.417Z,12.80
2019-02-26T13:06:53.835Z,8.35
2019-02-26T13:09:26.646Z,7.40
2019-02-26T13:12:01.268Z,7.60
2019-02-26T13:14:25.568Z,5.62
2019-02-26T13:16:56.981Z,10.85
2019-02-26T13:22:05.121Z,6.95
2019-02-26T13:24:28.378Z,4.62
2019-02-26T13:26:59.695Z,6.70
2019-02-26T13:29:28.973Z,7.75
2019-02-26T13:32:00.105Z,6.40
2019-02-26T13:34:29.534Z,9.28
2019-02-26T13:36:58.803Z,8.15
2019-02-26T13:39:36.843Z,15.68
2019-02-26T13:42:04.209Z,12.40
2019-02-26T13:44:30.059Z,10.80
2019-02-26T13:46:59.338Z,8.80
2019-02-26T13:49:28.481Z,7.55
2019-02-26T13:51:57.843Z,6.15
2019-02-26T13:54:28.187Z,16.37
2019-02-26T13:56:57.515Z,15.05
2019-02-26T13:59:27.161Z,15.88
2019-02-26T14:01:56.408Z,14.38
2019-02-26T14:04:27.539Z,17.92
2019-02-26T14:06:57.177Z,12.33
2019-02-26T14:09:27.375Z,14.78
2019-02-26T14:11:57.641Z,15.20
2019-02-26T14:14:28.380Z,10.75
2019-02-26T14:16:58.224Z,16.30
2019-02-26T14:19:27.404Z,15.03
2019-02-26T14:21:56.745Z,18.07
2019-02-26T14:24:25.983Z,12.55
2019-02-26T14:26:55.251Z,10.55
2019-02-26T14:29:24.781Z,12.03
2019-02-26T14:31:53.975Z,7.72
2019-02-26T14:34:23.791Z,12.00
2019-02-26T14:36:53.036Z,12.33
2019-02-26T14:39:23.797Z,9.40
2019-02-26T14:42:12.040Z,11.97
2019-02-26T14:44:41.367Z,11.85
2019-02-26T14:47:10.987Z,14.45
2019-02-26T14:49:40.980Z,21.85
2019-02-26T14:52:16.425Z,12.68
2019-02-26T14:54:45.984Z,15.08
2019-02-26T14:57:15.519Z,9.78
2019-02-26T14:59:47.805Z,16.90
2019-02-26T15:02:17.669Z,11.65
2019-02-26T15:04:46.917Z,16.10
2019-02-26T15:07:18.049Z,11.57
2019-02-26T15:09:47.665Z,12.10
2019-02-26T15:12:17.171Z,14.78
2019-02-26T15:14:48.872Z,27.32
2019-02-26T15:17:21.747Z,11.22
2019-02-26T15:19:53.235Z,16.35
2019-02-26T15:22:22.212Z,9.93
2019-02-26T15:24:56.239Z,11.65
2019-02-26T15:27:25.493Z,8.40
2019-02-26T15:29:54.941Z,13.40
2019-02-26T15:32:24.111Z,14.10
2019-02-26T15:34:53.431Z,13.35
2019-02-26T15:37:22.764Z,12.85
2019-02-26T15:39:54.174Z,16.85
2019-02-26T15:42:23.455Z,10.53
2019-02-26T15:44:52.936Z,12.33
2019-02-26T15:47:22.371Z,10.80
2019-02-26T15:49:52.095Z,13.60
2019-02-26T15:52:22.257Z,19.35
2019-02-26T15:54:57.289Z,19.05
2019-02-26T15:57:25.220Z,17.50
2019-02-26T15:59:54.431Z,16.63
2019-02-26T16:02:25.952Z,18.63
2019-02-26T16:04:55.037Z,16.83
2019-02-26T16:07:24.270Z,18.83
2019-02-26T16:09:54.185Z,15.87
2019-02-26T16:12:23.474Z,16.57
2019-02-26T16:14:53.182Z,15.70
2019-02-26T16:17:22.458Z,21.10
2019-02-26T16:19:52.305Z,15.47
2019-02-26T16:22:21.787Z,30.43
2019-02-26T16:24:53.202Z,33.40
2019-02-26T16:27:23.966Z,34.63
2019-02-26T16:29:53.570Z,27.27
2019-02-26T16:32:23.469Z,27.60
2019-02-26T16:34:54.150Z,26.13
2019-02-26T16:37:25.982Z,24.90
2019-02-26T16:39:56.043Z,25.90
2019-02-26T16:42:26.284Z,34.87
2019-02-26T16:44:58.597Z,38.77
2019-02-26T16:47:27.133Z,49.90
2019-02-26T16:50:02.106Z,55.03
2019-02-26T16:52:27.738Z,47.37
2019-02-26T16:55:02.369Z,41.90
2019-02-26T16:57:32.465Z,44.03
2019-02-26T17:00:02.322Z,50.77
2019-02-26T17:02:32.855Z,39.63
2019-02-26T17:05:49.848Z,32.90
2019-02-26T17:08:19.114Z,34.17
2019-02-26T17:11:03.151Z,33.90
2019-02-26T17:13:36.014Z,29.37
2019-02-26T17:16:06.373Z,29.77
2019-02-26T17:18:35.593Z,24.47
2019-02-26T17:21:05.180Z,24.20
2019-02-26T17:23:35.849Z,23.07
2019-02-26T17:26:05.500Z,26.80
2019-02-26T17:28:35.634Z,23.47
2019-02-26T17:31:04.853Z,24.93
2019-02-26T17:33:34.106Z,23.33
2019-02-26T17:36:06.929Z,27.00
2019-02-26T17:38:36.233Z,28.57
2019-02-26T17:41:54.400Z,28.27
2019-02-26T17:44:23.598Z,32.40
2019-02-26T17:46:53.054Z,32.20
2019-02-26T17:49:24.653Z,31.83
2019-02-26T17:51:54.162Z,31.77
2019-02-26T17:54:23.573Z,29.30
2019-02-26T17:56:52.942Z,37.13
2019-02-26T17:59:22.570Z,29.93
2019-02-26T18:01:51.855Z,32.20
2019-02-26T18:04:23.037Z,34.57
2019-02-26T18:06:52.163Z,32.97
2019-02-26T18:09:21.361Z,34.30
2019-02-26T18:11:50.870Z,32.87
2019-02-26T18:14:20.184Z,35.33
2019-02-26T18:16:50.379Z,32.00
2019-02-26T18:19:19.571Z,31.27
2019-02-26T18:21:48.772Z,36.43
2019-02-26T18:24:35.614Z,33.50
2019-02-26T18:27:05.245Z,36.93
2019-02-26T18:29:34.415Z,32.23
2019-02-26T18:32:03.744Z,39.20
2019-02-26T18:34:33.231Z,41.40
2019-02-26T18:37:03.723Z,41.97
2019-02-26T18:39:34.453Z,44.07
2019-02-26T18:42:07.604Z,35.80
2019-02-26T18:44:36.988Z,34.70
2019-02-26T18:47:07.098Z,37.90
2019-02-26T18:49:37.493Z,39.23
2019-02-26T18:52:08.400Z,45.80
2019-02-26T18:54:37.537Z,47.83
2019-02-26T18:57:11.323Z,39.70
2019-02-26T18:59:40.025Z,49.50
2019-02-26T19:02:09.519Z,46.03
2019-02-26T19:04:38.728Z,41.57
2019-02-26T19:07:08.243Z,45.27
2019-02-26T19:09:37.567Z,42.23
2019-02-26T19:12:06.846Z,39.93
2019-02-26T19:14:36.138Z,46.03
2019-02-26T19:17:05.443Z,38.70
2019-02-26T19:19:34.781Z,42.67
2019-02-26T19:22:04.410Z,43.10
2019-02-26T19:24:35.850Z,41.17
2019-02-26T19:27:05.240Z,48.33
2019-02-26T19:29:37.541Z,40.23
2019-02-26T19:32:07.750Z,43.90
2019-02-26T19:34:39.442Z,46.30
2019-02-26T19:37:08.740Z,48.10
2019-02-26T19:39:38.005Z,42.00
2019-02-26T19:42:08.810Z,43.97
2019-02-26T19:44:38.064Z,49.30
2019-02-26T19:47:07.277Z,41.17
2019-02-26T19:49:36.862Z,45.00
2019-02-26T19:52:07.597Z,44.13
2019-02-26T19:54:36.859Z,51.63
2019-02-26T19:57:06.100Z,46.63
2019-02-26T19:59:35.385Z,44.40
2019-02-26T20:02:04.934Z,46.17
2019-02-26T20:04:38.158Z,45.10
2019-02-26T20:07:08.143Z,38.20
2019-02-26T20:09:41.553Z,48.43
2019-02-26T20:12:10.830Z,47.63
2019-02-26T20:14:41.268Z,46.50
2019-02-26T20:17:14.830Z,46.17
2019-02-26T20:19:42.308Z,45.97
2019-02-26T20:22:11.914Z,47.07
2019-02-26T20:24:41.458Z,60.40
2019-02-26T20:27:13.051Z,58.63
2019-02-26T20:29:43.312Z,50.17
2019-02-26T20:32:12.560Z,49.10
2019-02-26T20:34:42.216Z,46.00
2019-02-26T20:37:11.476Z,50.67
2019-02-26T20:39:41.685Z,56.57
2019-02-26T20:42:13.466Z,46.33
2019-02-26T20:44:45.204Z,47.63
2019-02-26T20:47:13.490Z,54.37
2019-02-26T20:49:43.691Z,52.30
2019-02-26T20:52:13.836Z,47.40
2019-02-26T20:54:44.626Z,50.93
2019-02-26T20:57:17.111Z,52.07
2019-02-26T20:59:46.611Z,44.53
2019-02-26T21:02:15.936Z,50.03
2019-02-26T21:04:45.300Z,60.40
2019-02-26T21:07:16.389Z,51.33
2019-02-26T21:09:45.654Z,54.53
2019-02-26T21:12:16.443Z,45.30
2019-02-26T21:14:48.213Z,51.33
2019-02-26T21:17:17.447Z,50.10
2019-02-26T21:19:47.095Z,54.83
2019-02-26T21:22:16.891Z,49.73
2019-02-26T21:24:47.521Z,49.53
2019-02-26T21:27:19.839Z,52.60
2019-02-26T21:29:49.349Z,45.73
2019-02-26T21:32:18.599Z,53.17
2019-02-26T21:34:48.073Z,50.77
2019-02-26T21:37:19.947Z,48.27
2019-02-26T21:39:49.552Z,53.70
2019-02-26T21:42:18.763Z,48.80
2019-02-26T21:44:50.369Z,51.97
2019-02-26T21:47:20.280Z,51.93
2019-02-26T21:49:49.665Z,50.13
2019-02-26T21:52:19.299Z,54.37
2019-02-26T21:54:49.441Z,53.23
2019-02-26T21:57:21.507Z,46.17
2019-02-26T21:59:50.335Z,47.10
2019-02-26T22:02:19.944Z,49.47
2019-02-26T22:04:49.142Z,46.97
2019-02-26T22:07:19.078Z,52.67
2019-02-26T22:09:50.382Z,53.87
2019-02-26T22:12:21.814Z,50.83
2019-02-26T22:14:50.461Z,52.87
2019-02-26T22:17:19.793Z,45.37
2019-02-26T22:19:51.025Z,46.80
2019-02-26T22:22:20.224Z,44.70
2019-02-26T22:24:52.752Z,52.37
2019-02-26T22:27:22.725Z,50.80
2019-02-26T22:29:51.893Z,51.10
2019-02-26T22:32:21.640Z,49.43
2019-02-26T22:34:53.544Z,42.77
2019-02-26T22:37:22.778Z,52.10
2019-02-26T22:39:53.615Z,52.07
2019-02-26T22:42:23.336Z,50.80
2019-02-26T22:44:54.529Z,50.00
2019-02-26T22:47:24.230Z,51.93
2019-02-26T22:49:53.966Z,50.43
2019-02-26T22:52:24.741Z,51.63
2019-02-26T22:54:55.808Z,53.23
2019-02-26T22:57:24.976Z,57.73
2019-02-26T22:59:54.620Z,51.37
2019-02-26T23:02:24.820Z,55.83
2019-02-26T23:04:54.171Z,44.33
2019-02-26T23:07:25.766Z,50.83
2019-02-26T23:09:55.028Z,51.43
2019-02-26T23:12:24.872Z,54.00
2019-02-26T23:14:54.508Z,53.33
2019-02-26T23:17:24.884Z,49.70
2019-02-26T23:19:55.168Z,46.00
2019-02-26T23:22:24.736Z,51.20
2019-02-26T23:24:53.912Z,49.07
2019-02-26T23:27:23.410Z,58.27
2019-02-26T23:29:53.494Z,56.07
2019-02-26T23:32:23.233Z,49.60
2019-02-26T23:35:12.060Z,52.77
2019-02-26T23:37:41.662Z,45.90
2019-02-26T23:40:11.621Z,50.80
2019-02-26T23:42:40.868Z,44.37
2019-02-26T23:45:12.440Z,58.10
2019-02-26T23:47:42.118Z,54.40
2019-02-26T23:50:12.850Z,47.03
2019-02-26T23:52:42.110Z,48.63
2019-02-26T23:55:13.382Z,52.70
2019-02-26T23:57:42.707Z,45.13
